createdAt,value
2022-07-27T00:01:18.334Z,16.55
2022-07-27T00:12:28.506Z,16.45
2022-07-27T00:15:40.985Z,16.41
2022-07-27T00:22:33.234Z,16.36
2022-07-27T00:25:45.148Z,16.34
2022-07-27T00:28:57.116Z,16.33
2022-07-27T00:32:12.592Z,16.31
2022-07-27T00:35:23.367Z,16.31
2022-07-27T00:38:35.167Z,16.27
2022-07-27T00:41:46.903Z,16.21
2022-07-27T00:44:58.937Z,16.15
2022-07-27T00:48:12.163Z,16.10
2022-07-27T00:51:25.968Z,16.04
2022-07-27T00:54:37.773Z,16.02
2022-07-27T00:57:58.525Z,15.98
2022-07-27T01:01:04.276Z,16.01
2022-07-27T01:04:15.930Z,15.92
2022-07-27T01:07:28.297Z,15.91
2022-07-27T01:10:41.764Z,15.86
2022-07-27T01:13:53.980Z,15.78
2022-07-27T01:17:05.824Z,15.77
2022-07-27T01:20:18.943Z,15.74
2022-07-27T01:23:32.568Z,15.71
2022-07-27T01:26:45.417Z,15.72
2022-07-27T01:29:58.094Z,15.72
2022-07-27T01:33:13.258Z,15.73
2022-07-27T01:36:25.329Z,15.78
2022-07-27T01:39:41.747Z,15.71
2022-07-27T01:42:56.957Z,15.70
2022-07-27T01:46:09.290Z,15.69
2022-07-27T01:49:21.108Z,15.70
2022-07-27T01:52:33.132Z,15.69
2022-07-27T01:55:45.156Z,15.66
2022-07-27T01:58:56.886Z,15.64
2022-07-27T02:02:08.547Z,15.63
2022-07-27T02:05:20.817Z,15.59
2022-07-27T02:08:32.864Z,15.57
2022-07-27T02:11:59.185Z,15.53
2022-07-27T02:15:15.780Z,15.54
2022-07-27T02:18:35.807Z,15.52
2022-07-27T02:21:42.172Z,15.49
2022-07-27T02:24:54.019Z,15.47
2022-07-27T02:28:05.761Z,15.49
2022-07-27T02:31:17.310Z,15.49
2022-07-27T02:34:29.100Z,15.48
2022-07-27T02:37:40.951Z,15.40
2022-07-27T02:40:52.919Z,15.39
2022-07-27T02:44:07.687Z,15.37
2022-07-27T02:47:19.790Z,15.35
2022-07-27T02:50:31.898Z,15.35
2022-07-27T02:53:43.739Z,15.36
2022-07-27T02:56:56.276Z,15.36
2022-07-27T03:00:08.696Z,15.34
2022-07-27T03:03:23.388Z,15.29
2022-07-27T03:06:37.345Z,15.29
2022-07-27T03:09:52.492Z,15.28
2022-07-27T03:13:03.227Z,15.22
2022-07-27T03:16:15.315Z,15.26
2022-07-27T03:19:30.298Z,15.24
2022-07-27T03:22:42.518Z,15.24
2022-07-27T03:25:54.277Z,15.25
2022-07-27T03:29:06.144Z,15.21
2022-07-27T03:32:18.046Z,15.21
2022-07-27T03:35:30.472Z,15.09
2022-07-27T03:38:42.563Z,15.19
2022-07-27T03:41:54.226Z,15.21
2022-07-27T03:45:05.942Z,15.25
2022-07-27T03:48:17.643Z,15.23
2022-07-27T03:51:29.170Z,15.26
2022-07-27T03:54:41.035Z,15.31
2022-07-27T03:57:52.783Z,15.28
2022-07-27T04:01:04.551Z,15.24
2022-07-27T04:04:16.516Z,15.27
2022-07-27T04:07:28.100Z,15.29
2022-07-27T04:10:39.778Z,15.28
2022-07-27T04:13:54.423Z,15.29
2022-07-27T04:17:09.433Z,15.33
2022-07-27T04:20:21.250Z,15.33
2022-07-27T04:23:37.940Z,15.37
2022-07-27T04:26:46.937Z,15.39
2022-07-27T04:29:58.509Z,15.45
2022-07-27T04:33:10.330Z,15.54
2022-07-27T04:36:22.020Z,15.69
2022-07-27T04:39:33.753Z,15.72
2022-07-27T04:42:49.259Z,15.80
2022-07-27T04:45:59.375Z,15.81
2022-07-27T04:49:11.323Z,15.82
2022-07-27T04:52:26.449Z,15.80
2022-07-27T04:55:38.116Z,15.85
2022-07-27T04:58:49.819Z,15.88
2022-07-27T05:02:01.426Z,15.94
2022-07-27T05:05:14.612Z,15.99
2022-07-27T05:08:26.884Z,16.10
2022-07-27T05:11:38.690Z,16.12
2022-07-27T05:14:50.262Z,16.15
2022-07-27T05:18:02.023Z,16.29
2022-07-27T05:21:13.941Z,16.32
2022-07-27T05:24:25.620Z,16.44
2022-07-27T05:27:54.224Z,16.54
2022-07-27T05:30:52.518Z,16.55
2022-07-27T05:34:04.377Z,16.54
2022-07-27T05:37:16.240Z,16.61
2022-07-27T05:40:28.408Z,16.82
2022-07-27T05:43:40.204Z,16.95
2022-07-27T05:46:51.908Z,17.23
2022-07-27T05:50:03.458Z,17.56
2022-07-27T05:53:15.479Z,17.70
2022-07-27T05:56:27.591Z,17.78
2022-07-27T05:59:39.756Z,17.85
2022-07-27T06:02:51.912Z,17.99
2022-07-27T06:06:21.345Z,18.12
2022-07-27T06:09:33.069Z,18.41
2022-07-27T06:12:48.086Z,18.54
2022-07-27T06:16:00.980Z,18.69
2022-07-27T06:19:13.078Z,18.62
2022-07-27T06:22:25.169Z,18.61
2022-07-27T06:25:40.451Z,18.86
2022-07-27T06:28:53.076Z,18.86
2022-07-27T06:32:04.878Z,18.72
2022-07-27T06:35:17.857Z,18.85
2022-07-27T06:38:31.379Z,18.84
2022-07-27T06:41:43.185Z,18.82
2022-07-27T06:44:56.974Z,18.71
2022-07-27T06:48:09.243Z,18.81
2022-07-27T06:51:20.987Z,18.80
2022-07-27T07:01:12.144Z,19.13
2022-07-27T07:04:25.286Z,19.24
2022-07-27T07:07:37.584Z,19.33
2022-07-27T07:10:51.083Z,19.50
2022-07-27T07:14:02.993Z,19.50
2022-07-27T07:17:14.671Z,19.47
2022-07-27T07:20:26.978Z,19.61
2022-07-27T07:23:38.873Z,20.63
2022-07-27T07:26:50.456Z,21.28
2022-07-27T07:30:03.194Z,21.38
2022-07-27T07:33:15.000Z,20.91
2022-07-27T07:36:27.003Z,21.12
2022-07-27T07:39:38.755Z,21.25
2022-07-27T07:43:02.613Z,21.11
2022-07-27T07:46:14.870Z,21.12
2022-07-27T07:49:39.259Z,21.15
2022-07-27T07:52:40.792Z,21.18
2022-07-27T07:55:52.618Z,21.18
2022-07-27T07:59:05.165Z,20.92
2022-07-27T08:02:16.957Z,20.84
2022-07-27T08:05:29.809Z,20.68
2022-07-27T08:08:41.909Z,20.58
2022-07-27T08:11:53.586Z,20.57
2022-07-27T08:15:05.276Z,21.07
2022-07-27T08:18:17.614Z,21.65
2022-07-27T08:21:31.629Z,22.09
2022-07-27T08:24:42.972Z,22.51
2022-07-27T08:27:55.487Z,23.18
2022-07-27T08:31:12.175Z,23.68
2022-07-27T08:34:22.251Z,23.76
2022-07-27T08:37:34.149Z,24.07
2022-07-27T08:40:47.573Z,24.46
2022-07-27T08:44:02.434Z,24.82
2022-07-27T08:47:16.874Z,25.13
2022-07-27T08:50:30.740Z,24.91
2022-07-27T08:53:53.154Z,25.46
2022-07-27T08:56:57.367Z,25.70
2022-07-27T09:00:12.551Z,25.63
2022-07-27T09:03:27.484Z,25.57
2022-07-27T09:06:54.434Z,25.72
2022-07-27T09:10:04.874Z,25.92
2022-07-27T09:13:29.394Z,26.32
2022-07-27T09:17:28.883Z,26.45
2022-07-27T09:20:06.334Z,26.45
2022-07-27T09:23:26.047Z,26.23
2022-07-27T09:26:38.569Z,26.16
2022-07-27T09:29:50.341Z,26.77
2022-07-27T09:33:06.872Z,26.13
2022-07-27T09:36:19.764Z,26.06
2022-07-27T09:39:33.185Z,26.17
2022-07-27T09:45:59.056Z,26.54
2022-07-27T09:49:12.311Z,27.42
2022-07-27T09:52:33.472Z,27.99
2022-07-27T09:55:45.881Z,27.53
2022-07-27T09:59:00.045Z,27.87
2022-07-27T10:02:13.204Z,28.02
2022-07-27T10:05:26.067Z,28.41
2022-07-27T10:08:39.015Z,28.61
2022-07-27T10:11:51.781Z,27.80
2022-07-27T10:15:03.488Z,27.38
2022-07-27T10:18:20.164Z,26.74
2022-07-27T10:21:32.799Z,27.51
2022-07-27T10:24:51.224Z,28.35
2022-07-27T10:28:18.958Z,28.71
2022-07-27T10:31:33.947Z,29.12
2022-07-27T10:34:48.168Z,29.24
2022-07-27T10:38:21.760Z,29.08
2022-07-27T11:20:41.856Z,28.34
2022-07-27T11:32:50.806Z,28.65
2022-07-27T11:36:08.034Z,28.47
2022-07-27T11:42:48.917Z,28.44
2022-07-27T11:46:00.748Z,27.93
2022-07-27T11:49:16.218Z,27.58
2022-07-27T11:52:27.915Z,27.78
2022-07-27T11:55:39.744Z,27.58
2022-07-27T11:59:17.596Z,27.49
2022-07-27T12:02:29.754Z,27.27
2022-07-27T12:05:41.633Z,27.06
2022-07-27T12:08:53.496Z,27.68
2022-07-27T12:12:10.080Z,27.69
2022-07-27T12:18:49.898Z,28.07
2022-07-27T12:22:02.495Z,27.83
2022-07-27T12:25:29.963Z,28.05
2022-07-27T12:28:42.450Z,27.97
2022-07-27T12:31:58.697Z,27.47
2022-07-27T12:35:32.813Z,27.70
2022-07-27T12:38:48.742Z,27.81
2022-07-27T12:42:12.761Z,27.99
2022-07-27T12:45:27.751Z,27.41
2022-07-27T12:48:45.767Z,27.52
2022-07-27T12:51:57.960Z,27.76
2022-07-27T12:55:15.532Z,27.72
2022-07-27T12:58:26.017Z,27.75
2022-07-27T13:01:38.226Z,27.61
2022-07-27T13:04:51.373Z,27.50
2022-07-27T13:08:04.992Z,27.60
2022-07-27T13:11:17.163Z,27.59
2022-07-27T13:14:29.378Z,28.07
2022-07-27T13:17:42.224Z,27.88
2022-07-27T13:20:54.077Z,27.84
2022-07-27T13:24:07.158Z,27.70
2022-07-27T13:27:18.961Z,27.56
2022-07-27T13:30:30.823Z,27.68
2022-07-27T13:33:42.659Z,27.28
2022-07-27T13:36:54.492Z,27.60
2022-07-27T13:40:06.706Z,27.65
2022-07-27T13:43:19.574Z,27.51
2022-07-27T13:46:31.832Z,27.59
2022-07-27T13:49:43.839Z,27.38
2022-07-27T13:52:56.144Z,27.55
2022-07-27T13:56:08.061Z,27.59
2022-07-27T13:59:20.254Z,27.40
2022-07-27T14:02:32.330Z,27.14
2022-07-27T14:05:49.202Z,27.02
2022-07-27T14:08:58.464Z,27.01
2022-07-27T14:12:13.773Z,26.86
2022-07-27T14:15:25.837Z,26.53
2022-07-27T14:18:38.191Z,26.50
2022-07-27T14:21:50.096Z,26.54
2022-07-27T14:25:01.752Z,26.48
2022-07-27T14:28:13.735Z,26.25
2022-07-27T14:31:25.523Z,25.95
2022-07-27T14:34:37.638Z,25.69
2022-07-27T14:37:49.304Z,25.93
2022-07-27T14:41:01.940Z,26.30
2022-07-27T14:44:14.185Z,26.25
2022-07-27T14:47:28.052Z,26.21
2022-07-27T14:50:39.818Z,26.03
2022-07-27T14:53:51.832Z,26.07
2022-07-27T14:57:06.410Z,25.94
2022-07-27T15:00:22.103Z,25.86
2022-07-27T15:03:33.768Z,25.82
2022-07-27T15:06:57.316Z,25.90
2022-07-27T15:19:39.307Z,25.65
2022-07-27T15:31:26.245Z,25.54
2022-07-27T15:43:40.332Z,25.61
2022-07-27T16:23:01.872Z,25.07
2022-07-27T16:29:21.321Z,25.18
2022-07-27T16:35:41.062Z,24.97
2022-07-27T16:38:57.210Z,24.97
2022-07-27T16:42:12.563Z,25.07
2022-07-27T16:45:24.148Z,25.14
2022-07-27T16:48:41.801Z,25.10
2022-07-27T16:51:57.129Z,24.86
2022-07-27T16:55:13.073Z,24.89
2022-07-27T16:58:25.724Z,24.74
2022-07-27T17:01:37.681Z,24.60
2022-07-27T17:04:49.563Z,24.50
2022-07-27T17:08:01.311Z,24.35
2022-07-27T17:11:14.357Z,24.39
2022-07-27T17:14:26.410Z,24.44
2022-07-27T17:17:38.741Z,24.42
2022-07-27T17:20:50.566Z,24.46
2022-07-27T17:24:04.598Z,24.48
2022-07-27T17:27:16.558Z,24.43
2022-07-27T17:30:28.465Z,24.37
2022-07-27T17:33:40.777Z,24.33
2022-07-27T17:36:53.374Z,24.24
2022-07-27T17:40:05.014Z,24.23
2022-07-27T17:43:17.226Z,24.19
2022-07-27T17:46:32.351Z,24.13
2022-07-27T17:49:46.006Z,24.07
2022-07-27T17:52:59.513Z,23.96
2022-07-27T17:59:40.093Z,23.77
2022-07-27T18:02:52.509Z,23.70
2022-07-27T18:06:07.007Z,23.65
2022-07-27T18:09:19.204Z,23.53
2022-07-27T18:12:35.731Z,23.46
2022-07-27T18:15:58.110Z,23.35
2022-07-27T18:19:14.454Z,23.17
2022-07-27T18:22:33.096Z,23.10
2022-07-27T18:25:45.000Z,23.10
2022-07-27T18:32:04.188Z,22.94
2022-07-27T18:35:18.381Z,22.84
2022-07-27T19:21:04.787Z,21.67
2022-07-27T19:31:24.941Z,21.38
2022-07-27T19:34:36.990Z,21.18
2022-07-27T20:25:20.997Z,20.68
2022-07-27T21:56:50.580Z,20.43
2022-07-27T22:06:08.581Z,20.40
2022-07-27T23:09:05.613Z,20.06
2022-07-27T23:18:19.578Z,19.86
2022-07-27T23:21:31.343Z,19.77
2022-07-27T23:24:44.355Z,19.68
2022-07-27T23:27:57.106Z,19.57
2022-07-27T23:31:08.945Z,19.54
2022-07-27T23:34:20.961Z,19.49
2022-07-27T23:37:33.192Z,19.41
2022-07-27T23:40:44.969Z,19.35
2022-07-27T23:43:57.042Z,19.38
2022-07-27T23:47:08.994Z,19.41
2022-07-27T23:50:22.972Z,19.36
2022-07-27T23:53:34.773Z,19.34
2022-07-27T23:56:46.431Z,19.33
2022-07-27T23:59:58.323Z,19.23
